Time;durP1;ratioP1;P1;durP2;ratioP2;P2;SDS_P1;SDS_P2;PMS_P1;PMS_P2;Temp;Humidity;BMP_temperature;BMP_pressure;BME280_temperature;BME280_humidity;BME280_pressure;Samples;Min_cycle;Max_cycle;Signal;HPM_P1;HPM_P2
2021/10/25 00:00:10;;;;;;;;;;;;;;;8.81;100.00;99421.56;5010613;28;19927;-68
2021/10/25 00:02:36;;;;;;;;;;;;;;;8.51;100.00;99426.38;5011675;28;19925;-68
2021/10/25 00:05:01;;;;;;;;;;;;;;;8.62;100.00;99423.59;5044364;28;19935;-68
2021/10/25 00:07:27;;;;;;;;;;;;;;;8.81;100.00;99422.41;5006135;28;20295;-68
2021/10/25 00:09:52;;;;;;;;;;;;;;;8.86;100.00;99415.47;5013104;28;19925;-68
2021/10/25 00:12:18;;;;;;;;;;;;;;;8.52;100.00;99416.06;5005921;28;19948;-68
2021/10/25 00:14:43;;;;;;;;;;;;;;;8.48;100.00;99418.69;5044471;28;19928;-68
2021/10/25 00:17:09;;;;;;;;;;;;;;;8.55;100.00;99416.03;5007357;28;20351;-67
2021/10/25 00:19:35;;;;;;;;;;;;;;;8.70;100.00;99422.59;5028521;28;20633;-67
2021/10/25 00:22:00;;;;;;;;;;;;;;;8.59;100.00;99421.94;5028086;28;19930;-67
2021/10/25 00:24:26;;;;;;;;;;;;;;;8.74;100.00;99421.66;5027875;28;20391;-67
2021/10/25 00:26:51;;;;;;;;;;;;;;;8.59;100.00;99424.50;5020058;28;19920;-64
2021/10/25 00:29:17;;;;;;;;;;;;;;;8.75;100.00;99425.06;5031356;28;20004;-64
2021/10/25 00:31:42;;;;;;;;;;;;;;;8.72;100.00;99428.56;5010066;28;20385;-68
2021/10/25 00:34:08;;;;;;;;;;;;;;;8.81;100.00;99431.84;5012037;28;20296;-68
2021/10/25 00:36:34;;;;;;;;;;;;;;;8.52;100.00;99436.59;5011909;28;19925;-68
2021/10/25 00:38:59;;;;;;;;;;;;;;;8.24;100.00;99431.03;5021128;28;20473;-68
2021/10/25 00:41:25;;;;;;;;;;;;;;;8.40;100.00;99435.94;5043031;28;19921;-68
2021/10/25 00:43:50;;;;;;;;;;;;;;;8.56;100.00;99422.00;5004506;28;20310;-68
2021/10/25 00:46:16;;;;;;;;;;;;;;;8.27;100.00;99433.53;5009340;28;20015;-69
2021/10/25 00:48:41;;;;;;;;;;;;;;;8.55;100.00;99430.56;5007295;28;19925;-68
2021/10/25 00:51:07;;;;;;;;;;;;;;;8.42;100.00;99429.09;5011847;28;19932;-68
2021/10/25 00:53:33;;;;;;;;;;;;;;;8.70;100.00;99420.03;5003888;28;19918;-68
2021/10/25 00:55:58;;;;;;;;;;;;;;;8.60;100.00;99418.50;5001582;28;20387;-68
2021/10/25 00:58:25;;;;;;;;;;;;;;;8.64;100.00;99425.25;4992032;28;19922;-68
2021/10/25 01:00:50;;;;;;;;;;;;;;;8.48;100.00;99426.41;4992244;28;20551;-68
2021/10/25 01:03:16;;;;;;;;;;;;;;;8.24;100.00;99423.34;5006108;28;19992;-67
2021/10/25 01:05:42;;;;;;;;;;;;;;;8.42;100.00;99424.78;4999505;28;20383;-64
2021/10/25 01:08:07;;;;;;;;;;;;;;;8.32;100.00;99418.91;4992610;28;20418;-64
2021/10/25 01:10:33;;;;;;;;;;;;;;;8.10;100.00;99430.41;4998004;28;19914;-64
2021/10/25 01:12:58;;;;;;;;;;;;;;;8.44;100.00;99433.31;4995522;28;19990;-64
2021/10/25 01:15:24;;;;;;;;;;;;;;;8.41;100.00;99433.34;4986432;28;19918;-65
2021/10/25 01:17:53;;;;;;;;;;;;;;;8.51;100.00;99428.94;4991397;28;20017;-68
2021/10/25 01:20:19;;;;;;;;;;;;;;;8.30;100.00;99427.50;4992659;28;19922;-68
2021/10/25 01:22:44;;;;;;;;;;;;;;;8.09;100.00;99418.44;4985245;28;19930;-68
2021/10/25 01:25:09;;;;;;;;;;;;;;;8.29;100.00;99418.97;4993592;28;19936;-67
2021/10/25 01:27:35;;;;;;;;;;;;;;;8.38;100.00;99423.94;4983949;28;20287;-68
2021/10/25 01:30:00;;;;;;;;;;;;;;;7.92;100.00;99427.22;4994723;28;19969;-68
2021/10/25 01:32:26;;;;;;;;;;;;;;;8.40;100.00;99425.66;4986707;28;19924;-68
2021/10/25 01:34:51;;;;;;;;;;;;;;;8.62;100.00;99421.91;4995339;28;19957;-67
2021/10/25 01:37:17;;;;;;;;;;;;;;;8.02;100.00;99424.53;5003596;28;19922;-67
2021/10/25 01:39:42;;;;;;;;;;;;;;;8.15;100.00;99421.75;5018799;28;19918;-68
2021/10/25 01:42:08;;;;;;;;;;;;;;;8.18;100.00;99421.69;5004608;28;19998;-68
2021/10/25 01:44:34;;;;;;;;;;;;;;;8.11;100.00;99424.38;4995235;28;19918;-68
2021/10/25 01:47:00;;;;;;;;;;;;;;;7.81;100.00;99425.69;5003748;28;19964;-68
2021/10/25 01:49:25;;;;;;;;;;;;;;;8.10;100.00;99417.56;4988996;28;19928;-68
2021/10/25 01:51:51;;;;;;;;;;;;;;;8.25;100.00;99417.31;4996550;28;20012;-68
2021/10/25 01:54:16;;;;;;;;;;;;;;;8.04;100.00;99422.78;4987247;28;20009;-68
2021/10/25 01:56:42;;;;;;;;;;;;;;;8.26;100.00;99421.59;5003165;28;19929;-68
2021/10/25 01:59:08;;;;;;;;;;;;;;;8.28;100.00;99424.97;5011439;28;19980;-68
2021/10/25 02:01:33;;;;;;;;;;;;;;;7.88;100.00;99412.75;5015638;28;20457;-68
2021/10/25 02:03:59;;;;;;;;;;;;;;;7.77;100.00;99414.63;5014005;28;19960;-68
2021/10/25 02:06:24;;;;;;;;;;;;;;;7.80;100.00;99417.16;5024382;27;20374;-68
2021/10/25 02:08:50;;;;;;;;;;;;;;;7.66;100.00;99421.59;5013502;28;19925;-68
2021/10/25 02:11:15;;;;;;;;;;;;;;;7.84;100.00;99416.22;5047745;28;19917;-68
2021/10/25 02:13:41;;;;;;;;;;;;;;;7.84;100.00;99411.09;5013625;28;19925;-68
2021/10/25 02:16:07;;;;;;;;;;;;;;;7.71;100.00;99410.44;5025058;28;20004;-68
2021/10/25 02:18:33;;;;;;;;;;;;;;;7.42;100.00;99408.25;5006555;28;19921;-68
2021/10/25 02:20:59;;;;;;;;;;;;;;;7.88;100.00;99414.47;5030518;28;19996;-67
2021/10/25 02:23:25;;;;;;;;;;;;;;;7.88;100.00;99407.63;5007097;28;19917;-67
2021/10/25 02:25:51;;;;;;;;;;;;;;;7.91;100.00;99410.16;5006733;28;20404;-67
2021/10/25 02:28:17;;;;;;;;;;;;;;;7.81;100.00;99405.19;5010017;28;19957;-67
2021/10/25 02:30:42;;;;;;;;;;;;;;;7.72;100.00;99407.00;5013191;28;20754;-67
2021/10/25 02:33:07;;;;;;;;;;;;;;;7.57;100.00;99406.34;5014766;28;19965;-67
2021/10/25 02:35:33;;;;;;;;;;;;;;;7.61;100.00;99405.44;5010302;28;19921;-67
2021/10/25 02:37:58;;;;;;;;;;;;;;;7.80;100.00;99398.34;5009422;28;20405;-63
2021/10/25 02:40:25;;;;;;;;;;;;;;;7.60;100.00;99393.50;5051045;28;19917;-64
2021/10/25 02:42:52;;;;;;;;;;;;;;;7.71;100.00;99389.09;5031484;28;20658;-64
2021/10/25 02:45:18;;;;;;;;;;;;;;;7.89;100.00;99388.81;5009516;28;20001;-66
2021/10/25 02:47:43;;;;;;;;;;;;;;;7.87;100.00;99377.72;5026175;28;20446;-66
2021/10/25 02:50:09;;;;;;;;;;;;;;;7.68;100.00;99384.81;5009787;28;19914;-67
2021/10/25 02:52:34;;;;;;;;;;;;;;;7.35;100.00;99378.44;5030696;28;19913;-68
2021/10/25 02:54:59;;;;;;;;;;;;;;;7.43;100.00;99379.19;5011711;28;19918;-67
2021/10/25 02:57:25;;;;;;;;;;;;;;;7.54;100.00;99376.47;5011056;28;19928;-64
2021/10/25 02:59:50;;;;;;;;;;;;;;;7.62;100.00;99378.94;5016912;28;19925;-67
2021/10/25 03:02:15;;;;;;;;;;;;;;;7.81;100.00;99370.13;5022881;28;19921;-64
2021/10/25 03:04:41;;;;;;;;;;;;;;;7.73;100.00;99366.81;5013474;28;19976;-67
2021/10/25 03:07:06;;;;;;;;;;;;;;;7.78;100.00;99365.06;5046207;28;19921;-68
2021/10/25 03:09:31;;;;;;;;;;;;;;;7.72;100.00;99365.13;5008108;28;20017;-67
2021/10/25 03:11:57;;;;;;;;;;;;;;;7.61;100.00;99359.31;5005333;28;20302;-67
2021/10/25 03:14:23;;;;;;;;;;;;;;;7.51;100.00;99363.72;5011053;28;19918;-67
2021/10/25 03:16:48;;;;;;;;;;;;;;;7.68;100.00;99359.19;5007689;28;19932;-67
2021/10/25 03:19:13;;;;;;;;;;;;;;;7.59;100.00;99359.31;5012575;28;19921;-68
2021/10/25 03:21:39;;;;;;;;;;;;;;;7.34;100.00;99353.69;4991524;28;20046;-68
2021/10/25 03:24:04;;;;;;;;;;;;;;;7.36;100.00;99356.22;5045316;28;19919;-68
2021/10/25 03:26:30;;;;;;;;;;;;;;;7.09;100.00;99361.69;5006530;28;20487;-68
2021/10/25 03:28:55;;;;;;;;;;;;;;;7.23;100.00;99360.66;5044169;28;19921;-68
2021/10/25 03:31:21;;;;;;;;;;;;;;;7.12;100.00;99360.81;5055154;27;20422;-67
2021/10/25 03:33:47;;;;;;;;;;;;;;;7.24;100.00;99357.25;5045379;28;20378;-67
2021/10/25 03:36:13;;;;;;;;;;;;;;;7.57;100.00;99360.22;5020970;28;19927;-67
2021/10/25 03:38:39;;;;;;;;;;;;;;;7.65;100.00;99350.72;5005523;28;20395;-68
2021/10/25 03:41:09;;;;;;;;;;;;;;;7.50;100.00;99349.19;5013623;28;19921;-67
2021/10/25 03:43:38;;;;;;;;;;;;;;;7.23;100.00;99351.28;5044462;28;19925;-67
2021/10/25 03:46:13;;;;;;;;;;;;;;;7.43;100.00;99351.00;5021275;28;19925;-67
2021/10/25 03:48:53;;;;;;;;;;;;;;;7.45;100.00;99349.25;5020877;27;19966;-67
2021/10/25 03:51:19;;;;;;;;;;;;;;;7.41;100.00;99350.19;5006103;28;19917;-64
2021/10/25 03:57:07;;;;;;;;;;;;;;;7.42;100.00;99351.88;5014188;28;19965;-68
2021/10/25 04:28:57;;;;;;;;;;;;;;;7.03;100.00;99355.81;5011878;28;19926;-68
2021/10/25 04:31:22;;;;;;;;;;;;;;;7.02;100.00;99352.38;5011630;28;19917;-68
2021/10/25 04:33:48;;;;;;;;;;;;;;;7.18;100.00;99352.19;5012217;28;19973;-67
2021/10/25 04:36:13;;;;;;;;;;;;;;;7.27;100.00;99358.03;5020043;28;19957;-68
2021/10/25 04:38:39;;;;;;;;;;;;;;;7.13;100.00;99359.94;5004840;28;20016;-68
2021/10/25 04:41:04;;;;;;;;;;;;;;;7.18;100.00;99352.19;5004707;28;20975;-68
2021/10/25 04:43:30;;;;;;;;;;;;;;;7.22;100.00;99356.41;5021210;28;20399;-67
2021/10/25 04:45:55;;;;;;;;;;;;;;;7.20;100.00;99358.16;5011031;28;19917;-67
2021/10/25 04:48:20;;;;;;;;;;;;;;;6.94;100.00;99359.31;5009440;28;20371;-67
2021/10/25 04:50:46;;;;;;;;;;;;;;;6.98;100.00;99350.75;5008236;28;19914;-67
2021/10/25 04:53:11;;;;;;;;;;;;;;;6.91;100.00;99343.97;5012102;28;19913;-67
2021/10/25 04:55:37;;;;;;;;;;;;;;;6.95;100.00;99348.19;5007528;28;19928;-67
2021/10/25 04:58:02;;;;;;;;;;;;;;;7.05;100.00;99347.22;5021481;28;19949;-68
2021/10/25 05:00:28;;;;;;;;;;;;;;;7.13;100.00;99344.56;5011625;28;19914;-68
2021/10/25 05:02:55;;;;;;;;;;;;;;;7.39;100.00;99344.25;5003104;28;19914;-68
2021/10/25 05:05:20;;;;;;;;;;;;;;;7.20;100.00;99346.19;5022194;28;19918;-68
2021/10/25 05:07:46;;;;;;;;;;;;;;;7.27;100.00;99352.91;5020623;28;19918;-68
2021/10/25 05:10:11;;;;;;;;;;;;;;;7.37;100.00;99347.66;5003513;28;19965;-67
2021/10/25 05:12:36;;;;;;;;;;;;;;;7.33;100.00;99346.88;5004271;28;19935;-67
2021/10/25 05:15:02;;;;;;;;;;;;;;;7.36;100.00;99339.13;5002635;28;20966;-67
2021/10/25 05:17:28;;;;;;;;;;;;;;;7.07;100.00;99347.19;5042287;28;19924;-67
2021/10/25 05:19:53;;;;;;;;;;;;;;;7.15;100.00;99349.69;5003529;28;19924;-67
2021/10/25 05:22:19;;;;;;;;;;;;;;;7.13;100.00;99345.41;5009186;28;19913;-67
2021/10/25 05:24:45;;;;;;;;;;;;;;;6.87;100.00;99343.16;5000286;28;19928;-68
2021/10/25 05:27:11;;;;;;;;;;;;;;;7.03;100.00;99348.13;5009100;28;19917;-69
2021/10/25 05:29:37;;;;;;;;;;;;;;;6.99;100.00;99343.91;5007167;28;19924;-68
2021/10/25 05:32:03;;;;;;;;;;;;;;;6.95;100.00;99340.50;5043330;27;19913;-68
2021/10/25 05:34:31;;;;;;;;;;;;;;;7.10;100.00;99342.91;5025889;28;19918;-68
2021/10/25 05:36:57;;;;;;;;;;;;;;;6.96;100.00;99341.38;5043696;28;19917;-68
2021/10/25 05:39:22;;;;;;;;;;;;;;;7.13;100.00;99349.69;5015323;28;19958;-68
2021/10/25 05:41:47;;;;;;;;;;;;;;;7.09;100.00;99350.59;5004663;28;19914;-68
2021/10/25 05:44:13;;;;;;;;;;;;;;;7.16;100.00;99346.25;5042918;27;20385;-68
2021/10/25 05:46:39;;;;;;;;;;;;;;;7.10;100.00;99345.47;5011817;28;19992;-68
2021/10/25 05:49:04;;;;;;;;;;;;;;;6.98;100.00;99350.75;5005206;28;19928;-68
2021/10/25 05:51:30;;;;;;;;;;;;;;;7.26;100.00;99340.16;5012027;28;20297;-68
2021/10/25 05:53:57;;;;;;;;;;;;;;;7.20;100.00;99335.09;5020711;28;19925;-69
2021/10/25 05:56:22;;;;;;;;;;;;;;;7.43;100.00;99327.09;5010616;28;19956;-69
2021/10/25 05:58:49;;;;;;;;;;;;;;;7.60;100.00;99320.03;5020194;28;19980;-68
2021/10/25 06:01:17;;;;;;;;;;;;;;;7.28;100.00;99313.63;5012996;28;19913;-64
2021/10/25 06:03:45;;;;;;;;;;;;;;;7.06;100.00;99315.63;5018593;28;20858;-64
2021/10/25 06:06:10;;;;;;;;;;;;;;;7.19;100.00;99315.47;5030884;28;19913;-65
2021/10/25 06:08:38;;;;;;;;;;;;;;;7.28;100.00;99316.19;5007009;28;19914;-64
2021/10/25 06:11:04;;;;;;;;;;;;;;;7.37;100.00;99311.81;5004651;28;20956;-64
2021/10/25 06:13:34;;;;;;;;;;;;;;;7.46;100.00;99327.91;5005039;28;19974;-63
2021/10/25 06:16:20;;;;;;;;;;;;;;;7.06;100.00;99325.88;4988850;28;19928;-64
2021/10/25 06:18:45;;;;;;;;;;;;;;;7.20;100.00;99323.13;5045203;28;20342;-64
2021/10/25 06:21:11;;;;;;;;;;;;;;;7.33;100.00;99322.09;5006747;28;20020;-64
2021/10/25 06:23:36;;;;;;;;;;;;;;;7.24;100.00;99326.50;5044606;28;19929;-64
2021/10/25 06:26:03;;;;;;;;;;;;;;;7.18;100.00;99331.69;5007976;28;19922;-64
2021/10/25 06:28:29;;;;;;;;;;;;;;;7.18;100.00;99318.91;5006595;28;20438;-64
2021/10/25 06:31:04;;;;;;;;;;;;;;;7.04;100.00;99317.34;5021817;28;19921;-68
2021/10/25 06:33:30;;;;;;;;;;;;;;;7.33;100.00;99321.25;5006994;28;20279;-68
2021/10/25 06:36:07;;;;;;;;;;;;;;;7.26;100.00;99319.66;5023003;28;19995;-68
2021/10/25 06:38:36;;;;;;;;;;;;;;;7.66;100.00;99319.06;5011277;28;19925;-67
2021/10/25 06:41:02;;;;;;;;;;;;;;;7.36;100.00;99326.34;5022761;27;19913;-69
2021/10/25 06:43:28;;;;;;;;;;;;;;;7.17;100.00;99333.44;5005273;28;19920;-68
2021/10/25 06:45:54;;;;;;;;;;;;;;;7.12;100.00;99342.88;5045780;28;19917;-68
2021/10/25 06:48:20;;;;;;;;;;;;;;;7.24;100.00;99347.00;5022871;27;19921;-68
2021/10/25 06:50:45;;;;;;;;;;;;;;;7.44;100.00;99350.16;4990289;28;20330;-68
2021/10/25 06:53:13;;;;;;;;;;;;;;;7.53;100.00;99344.06;5046385;28;19932;-68
2021/10/25 06:55:40;;;;;;;;;;;;;;;7.51;100.00;99346.63;5006739;28;19981;-68
2021/10/25 06:58:05;;;;;;;;;;;;;;;7.35;100.00;99357.97;4990566;28;19917;-65
2021/10/25 07:00:31;;;;;;;;;;;;;;;7.62;100.00;99361.00;5007596;28;19917;-65
2021/10/25 07:02:56;;;;;;;;;;;;;;;7.63;100.00;99355.00;5009385;28;19982;-64
2021/10/25 07:05:22;;;;;;;;;;;;;;;7.79;100.00;99353.91;5012532;28;19913;-64
2021/10/25 07:07:47;;;;;;;;;;;;;;;7.74;100.00;99348.00;5014805;28;20488;-64
2021/10/25 07:10:13;;;;;;;;;;;;;;;7.81;100.00;99347.03;5012303;28;19953;-64
2021/10/25 07:12:39;;;;;;;;;;;;;;;7.91;100.00;99351.19;5013287;28;20013;-64
2021/10/25 07:15:05;;;;;;;;;;;;;;;7.93;100.00;99346.84;5011691;28;19920;-65
2021/10/25 07:17:38;;;;;;;;;;;;;;;8.16;100.00;99337.94;5025110;28;19918;-65
2021/10/25 08:04:32;;;;;;;;;;;;;;;8.76;100.00;99335.19;5042947;27;20277;-67
2021/10/25 08:11:59;;;;;;;;;;;;;;;9.03;100.00;99329.53;5017101;28;19971;-65
2021/10/25 08:14:31;;;;;;;;;;;;;;;9.12;100.00;99330.19;5019704;28;19963;-65
2021/10/25 08:16:57;;;;;;;;;;;;;;;9.25;100.00;99324.78;5027248;28;19929;-65
2021/10/25 08:19:26;;;;;;;;;;;;;;;8.96;100.00;99324.53;5005900;28;20271;-67
2021/10/25 08:21:52;;;;;;;;;;;;;;;9.02;100.00;99320.97;4997783;28;19928;-65
2021/10/25 08:24:17;;;;;;;;;;;;;;;9.08;100.00;99323.44;5019593;28;19913;-65
2021/10/25 08:26:45;;;;;;;;;;;;;;;8.83;100.00;99315.38;5015545;28;19920;-64
2021/10/25 08:29:10;;;;;;;;;;;;;;;8.76;100.00;99324.91;5033416;28;20378;-65
2021/10/25 08:31:38;;;;;;;;;;;;;;;9.01;100.00;99332.13;5012035;28;19914;-65
2021/10/25 08:39:47;;;;;;;;;;;;;;;9.39;100.00;99335.59;5022939;28;19936;-65
2021/10/25 08:42:13;;;;;;;;;;;;;;;9.66;100.00;99326.44;5047870;28;20362;-64
2021/10/25 08:44:39;;;;;;;;;;;;;;;10.29;100.00;99327.53;5033707;27;19914;-65
2021/10/25 08:47:06;;;;;;;;;;;;;;;10.00;100.00;99325.63;5030768;27;19919;-65
2021/10/25 08:49:32;;;;;;;;;;;;;;;10.21;100.00;99321.69;5012378;28;19917;-65
2021/10/25 08:51:59;;;;;;;;;;;;;;;10.26;100.00;99322.41;5018836;28;20409;-65
2021/10/25 08:54:25;;;;;;;;;;;;;;;10.65;100.00;99314.53;5029749;28;20009;-65
2021/10/25 08:56:50;;;;;;;;;;;;;;;10.69;100.00;99311.00;5009820;28;20040;-64
2021/10/25 08:59:20;;;;;;;;;;;;;;;11.28;100.00;99318.75;5021146;28;21929;-64
2021/10/25 09:01:45;;;;;;;;;;;;;;;11.42;100.00;99309.75;5005431;28;19921;-64
2021/10/25 09:04:12;;;;;;;;;;;;;;;11.59;100.00;99310.09;5004731;28;19918;-64
2021/10/25 09:06:55;;;;;;;;;;;;;;;11.54;100.00;99311.13;5020762;28;20567;-64
2021/10/25 09:09:20;;;;;;;;;;;;;;;11.69;100.00;99316.63;5041572;28;20949;-64
2021/10/25 09:11:59;;;;;;;;;;;;;;;11.78;100.00;99312.09;5010729;28;19980;-64
2021/10/25 09:14:24;;;;;;;;;;;;;;;11.34;100.00;99307.44;5029251;28;19921;-64
2021/10/25 09:17:00;;;;;;;;;;;;;;;10.80;100.00;99311.56;5005733;28;20291;-65
2021/10/25 09:19:28;;;;;;;;;;;;;;;10.64;100.00;99312.88;5020219;28;19928;-64
2021/10/25 09:22:02;;;;;;;;;;;;;;;10.36;100.00;99313.59;5004358;28;19917;-64
2021/10/25 09:24:28;;;;;;;;;;;;;;;10.59;100.00;99314.72;5004493;28;20009;-64
2021/10/25 09:26:58;;;;;;;;;;;;;;;11.59;100.00;99309.25;5044541;27;20528;-65
2021/10/25 09:29:24;;;;;;;;;;;;;;;11.89;100.00;99304.88;5045244;28;20511;-65
2021/10/25 09:31:54;;;;;;;;;;;;;;;11.72;100.00;99306.25;5004612;28;20407;-65
2021/10/25 09:34:22;;;;;;;;;;;;;;;11.69;100.00;99311.47;5013495;28;20341;-65
2021/10/25 09:36:51;;;;;;;;;;;;;;;11.76;100.00;99306.97;5009205;28;20287;-65
2021/10/25 09:39:39;;;;;;;;;;;;;;;11.90;100.00;99303.97;5004417;28;20050;-65
2021/10/25 09:42:21;;;;;;;;;;;;;;;11.68;100.00;99306.38;5011799;28;19937;-67
2021/10/25 09:50:18;;;;;;;;;;;;;;;12.39;100.00;99307.50;5014484;28;20439;-68
2021/10/25 09:52:44;;;;;;;;;;;;;;;12.67;100.00;99301.38;5008868;28;19913;-67
2021/10/25 09:55:11;;;;;;;;;;;;;;;13.35;100.00;99285.06;5007463;28;19933;-67
2021/10/25 10:00:05;;;;;;;;;;;;;;;13.23;100.00;99288.09;5014422;28;19996;-68
2021/10/25 10:02:31;;;;;;;;;;;;;;;13.61;100.00;99285.78;5007435;28;20461;-68
2021/10/25 10:05:00;;;;;;;;;;;;;;;13.02;100.00;99281.97;5007350;28;19913;-69
2021/10/25 10:07:28;;;;;;;;;;;;;;;13.79;100.00;99274.69;5007512;28;20012;-67
2021/10/25 10:09:54;;;;;;;;;;;;;;;13.69;100.00;99278.56;5013577;28;19924;-67
2021/10/25 10:12:20;;;;;;;;;;;;;;;14.48;100.00;99281.28;5012724;28;20388;-67
2021/10/25 10:14:46;;;;;;;;;;;;;;;14.50;100.00;99276.88;5013165;28;19913;-67
2021/10/25 10:17:12;;;;;;;;;;;;;;;14.40;100.00;99280.78;5011146;28;19979;-67
2021/10/25 10:19:38;;;;;;;;;;;;;;;14.85;100.00;99277.97;5012275;28;19941;-67
2021/10/25 10:22:03;;;;;;;;;;;;;;;14.69;100.00;99278.69;5031718;28;19917;-67
2021/10/25 10:24:31;;;;;;;;;;;;;;;14.87;100.00;99280.50;5009526;28;19917;-69
2021/10/25 10:27:00;;;;;;;;;;;;;;;15.08;100.00;99272.66;5017049;28;20026;-69
2021/10/25 10:29:25;;;;;;;;;;;;;;;15.32;100.00;99271.47;5007101;28;19921;-68
2021/10/25 10:31:59;;;;;;;;;;;;;;;14.97;100.00;99276.56;5011526;28;19971;-67
2021/10/25 10:34:24;;;;;;;;;;;;;;;14.04;100.00;99278.03;5094359;27;19960;-67
2021/10/25 10:36:51;;;;;;;;;;;;;;;14.12;100.00;99273.38;5134042;27;19915;-67
2021/10/25 10:39:17;;;;;;;;;;;;;;;13.75;100.00;99278.31;5134241;27;19956;-67
2021/10/25 10:41:51;;;;;;;;;;;;;;;13.91;100.00;99275.09;5134281;27;19923;-67
2021/10/25 10:44:21;;;;;;;;;;;;;;;14.48;100.00;99273.50;5134106;27;20540;-67
2021/10/25 10:46:52;;;;;;;;;;;;;;;14.67;100.00;99263.22;5133718;27;20391;-67
2021/10/25 10:49:38;;;;;;;;;;;;;;;14.59;100.00;99266.13;5133978;27;19953;-67
2021/10/25 10:52:07;;;;;;;;;;;;;;;13.66;100.00;99267.47;5019647;28;19924;-67
2021/10/25 10:54:43;;;;;;;;;;;;;;;14.12;100.00;99260.41;5043150;28;19914;-67
2021/10/25 10:57:23;;;;;;;;;;;;;;;14.56;100.00;99255.91;5009701;28;19929;-67
2021/10/25 10:59:50;;;;;;;;;;;;;;;13.97;100.00;99251.53;5027462;28;19920;-64
2021/10/25 11:02:19;;;;;;;;;;;;;;;13.67;100.00;99257.06;5015448;28;19920;-65
2021/10/25 11:04:44;;;;;;;;;;;;;;;14.10;100.00;99247.53;5035991;28;19913;-64
2021/10/25 11:07:10;;;;;;;;;;;;;;;14.98;100.00;99257.47;5047196;28;19925;-65
2021/10/25 11:09:35;;;;;;;;;;;;;;;15.25;100.00;99251.94;5019446;28;19920;-65
2021/10/25 11:12:02;;;;;;;;;;;;;;;14.69;100.00;99245.00;5023281;28;19917;-64
2021/10/25 11:14:29;;;;;;;;;;;;;;;15.31;100.00;99243.88;5015974;28;19913;-64
2021/10/25 11:17:24;;;;;;;;;;;;;;;15.47;100.00;99237.03;5028743;28;19917;-64
2021/10/25 11:19:55;;;;;;;;;;;;;;;15.47;100.00;99247.41;5021866;28;19913;-65
2021/10/25 11:22:24;;;;;;;;;;;;;;;13.95;100.00;99251.59;5016672;28;20294;-65
2021/10/25 11:24:50;;;;;;;;;;;;;;;14.12;100.00;99250.06;5014836;28;19950;-64
2021/10/25 11:27:20;;;;;;;;;;;;;;;14.96;100.00;99243.75;5019389;28;20384;-65
2021/10/25 11:29:46;;;;;;;;;;;;;;;14.95;100.00;99247.25;5018258;28;19913;-64
2021/10/25 11:32:12;;;;;;;;;;;;;;;14.80;100.00;99247.94;5016640;28;20375;-65
2021/10/25 11:34:40;;;;;;;;;;;;;;;15.43;100.00;99248.47;5013131;28;19913;-65
2021/10/25 11:37:09;;;;;;;;;;;;;;;15.63;100.00;99247.50;5018000;28;20409;-65
2021/10/25 11:39:38;;;;;;;;;;;;;;;16.05;100.00;99235.06;5015794;28;19918;-65
2021/10/25 11:42:14;;;;;;;;;;;;;;;15.63;100.00;99226.72;5051680;28;19918;-65
2021/10/25 11:44:40;;;;;;;;;;;;;;;14.62;100.00;99240.09;5012006;28;20364;-65
2021/10/25 11:47:15;;;;;;;;;;;;;;;15.15;100.00;99233.38;5021068;28;19949;-65
2021/10/25 11:49:41;;;;;;;;;;;;;;;15.02;100.00;99220.13;5032559;28;20282;-65
2021/10/25 11:52:06;;;;;;;;;;;;;;;15.37;100.00;99222.81;5026752;28;19919;-65
2021/10/25 11:54:31;;;;;;;;;;;;;;;15.11;100.00;99225.81;5021447;28;19918;-65
2021/10/25 11:56:57;;;;;;;;;;;;;;;15.03;100.00;99229.59;5013909;28;19931;-68
2021/10/25 11:59:22;;;;;;;;;;;;;;;16.53;100.00;99217.84;5012610;28;19932;-68
2021/10/25 12:01:48;;;;;;;;;;;;;;;16.24;100.00;99219.41;5013682;28;19921;-68
2021/10/25 12:04:14;;;;;;;;;;;;;;;16.23;100.00;99215.09;5007121;28;19921;-68
2021/10/25 12:06:40;;;;;;;;;;;;;;;17.05;100.00;99204.66;5011768;28;19978;-69
2021/10/25 12:09:06;;;;;;;;;;;;;;;16.33;100.00;99210.25;5014202;28;19924;-67
2021/10/25 12:14:07;;;;;;;;;;;;;;;17.22;100.00;99202.88;5020476;28;19956;-68
2021/10/25 12:16:33;;;;;;;;;;;;;;;16.84;100.00;99208.47;5018788;28;19955;-68
2021/10/25 12:18:59;;;;;;;;;;;;;;;16.11;100.00;99206.19;5018238;28;19914;-68
2021/10/25 12:21:31;;;;;;;;;;;;;;;15.62;100.00;99206.03;5019425;28;19928;-68
2021/10/25 12:23:56;;;;;;;;;;;;;;;16.30;100.00;99208.66;5017656;28;19956;-64
2021/10/25 12:26:22;;;;;;;;;;;;;;;16.49;100.00;99208.56;5006304;28;19959;-65
2021/10/25 12:28:47;;;;;;;;;;;;;;;16.12;100.00;99201.84;5013315;28;19925;-64
2021/10/25 12:31:14;;;;;;;;;;;;;;;16.56;100.00;99204.72;5044880;28;19963;-64
2021/10/25 12:33:40;;;;;;;;;;;;;;;16.68;100.00;99204.03;5006251;28;19922;-67
2021/10/25 12:36:15;;;;;;;;;;;;;;;16.56;100.00;99202.13;5006964;28;19921;-67
2021/10/25 12:38:42;;;;;;;;;;;;;;;16.77;100.00;99197.50;5017768;28;19956;-67
2021/10/25 12:41:08;;;;;;;;;;;;;;;16.05;100.00;99199.53;5029864;28;20387;-67
2021/10/25 12:43:37;;;;;;;;;;;;;;;16.13;100.00;99201.75;5012890;28;19943;-67
2021/10/25 12:46:05;;;;;;;;;;;;;;;16.68;100.00;99198.00;4998772;28;19922;-67
2021/10/25 12:48:51;;;;;;;;;;;;;;;16.22;100.00;99201.28;5021357;28;19917;-67
2021/10/25 12:51:18;;;;;;;;;;;;;;;17.06;100.00;99193.34;5044143;27;19913;-67
2021/10/25 12:53:45;;;;;;;;;;;;;;;16.28;100.00;99193.19;5027853;28;19913;-67
2021/10/25 12:56:11;;;;;;;;;;;;;;;16.25;100.00;99182.09;5027603;28;19932;-67
2021/10/25 12:58:36;;;;;;;;;;;;;;;15.89;100.00;99185.66;5027634;28;20387;-67
2021/10/25 13:01:11;;;;;;;;;;;;;;;15.69;100.00;99186.63;5027725;28;19925;-67
2021/10/25 13:03:37;;;;;;;;;;;;;;;15.75;100.00;99177.75;5027022;28;20285;-67
2021/10/25 13:06:08;;;;;;;;;;;;;;;15.44;100.00;99182.66;5044137;28;19913;-67
2021/10/25 13:08:35;;;;;;;;;;;;;;;15.52;100.00;99181.44;5061139;28;19913;-67
2021/10/25 13:11:01;;;;;;;;;;;;;;;16.41;100.00;99184.72;5027788;28;19952;-67
2021/10/25 13:13:31;;;;;;;;;;;;;;;16.10;100.00;99176.78;5044309;28;19913;-67
2021/10/25 13:15:57;;;;;;;;;;;;;;;16.38;100.00;99179.69;5026962;28;19913;-68
2021/10/25 13:18:22;;;;;;;;;;;;;;;17.14;100.00;99164.28;4990910;28;19981;-67
2021/10/25 13:20:48;;;;;;;;;;;;;;;15.52;100.00;99168.47;5007811;28;19914;-67
2021/10/25 13:23:14;;;;;;;;;;;;;;;16.40;100.00;99172.63;5007871;28;20442;-68
2021/10/25 13:25:41;;;;;;;;;;;;;;;16.04;100.00;99164.09;5014145;28;19924;-68
2021/10/25 13:28:07;;;;;;;;;;;;;;;16.62;100.00;99167.97;5016369;28;19921;-69
2021/10/25 13:30:33;;;;;;;;;;;;;;;16.20;100.00;99164.16;5008828;28;19929;-68
2021/10/25 13:32:58;;;;;;;;;;;;;;;16.75;100.00;99157.75;5016680;28;19917;-68
2021/10/25 13:35:24;;;;;;;;;;;;;;;16.76;100.00;99158.56;5009489;28;19921;-68
2021/10/25 13:37:54;;;;;;;;;;;;;;;17.50;100.00;99150.94;5046354;28;19925;-68
2021/10/25 13:40:21;;;;;;;;;;;;;;;17.92;100.00;99151.94;5007849;28;20935;-68
2021/10/25 13:42:46;;;;;;;;;;;;;;;18.13;100.00;99143.78;5029054;27;19953;-65
2021/10/25 13:45:12;;;;;;;;;;;;;;;17.23;100.00;99148.16;5037457;28;20010;-65
2021/10/25 13:47:37;;;;;;;;;;;;;;;17.17;100.00;99148.47;5035723;28;20289;-65
2021/10/25 13:50:03;;;;;;;;;;;;;;;16.26;100.00;99153.44;5023714;28;20357;-65
2021/10/25 13:52:29;;;;;;;;;;;;;;;17.19;100.00;99151.00;5017437;28;19920;-65
2021/10/25 13:54:55;;;;;;;;;;;;;;;16.44;100.00;99155.94;5019989;28;19918;-64
2021/10/25 13:57:22;;;;;;;;;;;;;;;17.12;100.00;99142.72;5008995;28;20321;-64
2021/10/25 13:59:48;;;;;;;;;;;;;;;16.53;100.00;99158.06;5008316;28;19941;-64
2021/10/25 14:02:15;;;;;;;;;;;;;;;16.58;100.00;99150.00;5014933;28;20021;-65
2021/10/25 14:04:47;;;;;;;;;;;;;;;16.80;100.00;99142.75;5029860;28;19985;-65
2021/10/25 14:07:18;;;;;;;;;;;;;;;17.63;100.00;99139.78;5007955;28;20002;-68
2021/10/25 14:09:49;;;;;;;;;;;;;;;17.30;100.00;99143.44;5006482;28;20048;-68
2021/10/25 14:12:30;;;;;;;;;;;;;;;17.62;100.00;99148.53;5006910;28;19921;-68
2021/10/25 14:17:31;;;;;;;;;;;;;;;17.41;100.00;99140.22;5014714;28;19928;-68
2021/10/25 14:19:56;;;;;;;;;;;;;;;16.48;100.00;99147.91;5012981;28;20043;-68
2021/10/25 14:22:22;;;;;;;;;;;;;;;15.83;100.00;99153.06;5008179;28;19932;-68